sensor_id;sensor_type;location;lat;lon;timestamp;P1;durP1;ratioP1;P2;durP2;ratioP2
18104;SDS011;9179;50.968;3.134;2023-04-15T00:00:24;4.70;;;4.40;;
18104;SDS011;9179;50.968;3.134;2023-04-15T00:02:51;5.03;;;4.53;;
18104;SDS011;9179;50.968;3.134;2023-04-15T00:05:18;4.85;;;4.55;;
18104;SDS011;9179;50.968;3.134;2023-04-15T00:07:46;4.40;;;4.10;;
18104;SDS011;9179;50.968;3.134;2023-04-15T00:10:13;5.30;;;4.57;;
18104;SDS011;9179;50.968;3.134;2023-04-15T00:12:40;4.72;;;4.43;;
18104;SDS011;9179;50.968;3.134;2023-04-15T00:15:07;4.50;;;4.20;;
18104;SDS011;9179;50.968;3.134;2023-04-15T00:17:36;5.53;;;5.03;;
18104;SDS011;9179;50.968;3.134;2023-04-15T00:20:04;5.75;;;5.35;;
18104;SDS011;9179;50.968;3.134;2023-04-15T00:22:31;6.07;;;5.57;;
18104;SDS011;9179;50.968;3.134;2023-04-15T00:25:00;6.07;;;5.63;;
18104;SDS011;9179;50.968;3.134;2023-04-15T00:27:27;5.53;;;5.13;;
18104;SDS011;9179;50.968;3.134;2023-04-15T00:29:54;5.80;;;5.30;;
18104;SDS011;9179;50.968;3.134;2023-04-15T00:32:22;5.15;;;4.70;;
18104;SDS011;9179;50.968;3.134;2023-04-15T00:34:49;5.97;;;5.30;;
18104;SDS011;9179;50.968;3.134;2023-04-15T00:37:16;6.85;;;6.20;;
18104;SDS011;9179;50.968;3.134;2023-04-15T00:39:43;6.32;;;5.78;;
18104;SDS011;9179;50.968;3.134;2023-04-15T00:42:12;5.63;;;5.18;;
18104;SDS011;9179;50.968;3.134;2023-04-15T00:44:39;6.07;;;5.38;;
18104;SDS011;9179;50.968;3.134;2023-04-15T00:47:06;6.32;;;5.82;;
18104;SDS011;9179;50.968;3.134;2023-04-15T00:49:34;5.60;;;5.10;;
18104;SDS011;9179;50.968;3.134;2023-04-15T00:52:01;5.38;;;4.90;;
18104;SDS011;9179;50.968;3.134;2023-04-15T00:54:28;6.03;;;5.53;;
18104;SDS011;9179;50.968;3.134;2023-04-15T00:56:55;5.60;;;5.20;;
18104;SDS011;9179;50.968;3.134;2023-04-15T00:59:24;5.55;;;5.15;;
18104;SDS011;9179;50.968;3.134;2023-04-15T01:01:52;4.97;;;4.63;;
18104;SDS011;9179;50.968;3.134;2023-04-15T01:04:19;5.47;;;5.03;;
18104;SDS011;9179;50.968;3.134;2023-04-15T01:06:46;5.65;;;5.25;;
18104;SDS011;9179;50.968;3.134;2023-04-15T01:09:13;5.93;;;5.43;;
18104;SDS011;9179;50.968;3.134;2023-04-15T01:11:40;5.60;;;5.20;;
18104;SDS011;9179;50.968;3.134;2023-04-15T01:14:07;5.18;;;4.78;;
18104;SDS011;9179;50.968;3.134;2023-04-15T01:19:05;5.28;;;4.78;;
18104;SDS011;9179;50.968;3.134;2023-04-15T01:21:35;6.32;;;5.72;;
18104;SDS011;9179;50.968;3.134;2023-04-15T01:24:02;5.00;;;4.60;;
18104;SDS011;9179;50.968;3.134;2023-04-15T01:26:35;5.22;;;4.72;;
18104;SDS011;9179;50.968;3.134;2023-04-15T01:29:03;5.38;;;4.88;;
18104;SDS011;9179;50.968;3.134;2023-04-15T01:31:30;5.40;;;4.90;;
18104;SDS011;9179;50.968;3.134;2023-04-15T01:33:57;5.47;;;5.07;;
18104;SDS011;9179;50.968;3.134;2023-04-15T01:36:25;5.63;;;4.95;;
18104;SDS011;9179;50.968;3.134;2023-04-15T01:38:52;6.00;;;5.47;;
18104;SDS011;9179;50.968;3.134;2023-04-15T01:41:20;7.15;;;5.32;;
18104;SDS011;9179;50.968;3.134;2023-04-15T01:43:50;5.15;;;4.82;;
18104;SDS011;9179;50.968;3.134;2023-04-15T01:46:17;6.03;;;5.63;;
18104;SDS011;9179;50.968;3.134;2023-04-15T01:48:45;6.03;;;5.63;;
18104;SDS011;9179;50.968;3.134;2023-04-15T01:51:12;9.35;;;5.65;;
18104;SDS011;9179;50.968;3.134;2023-04-15T01:53:38;5.88;;;5.45;;
18104;SDS011;9179;50.968;3.134;2023-04-15T01:56:06;6.97;;;6.47;;
18104;SDS011;9179;50.968;3.134;2023-04-15T01:58:33;5.60;;;5.20;;
18104;SDS011;9179;50.968;3.134;2023-04-15T02:01:01;5.93;;;5.40;;
18104;SDS011;9179;50.968;3.134;2023-04-15T02:03:28;5.68;;;5.28;;
18104;SDS011;9179;50.968;3.134;2023-04-15T02:05:55;6.05;;;5.60;;
18104;SDS011;9179;50.968;3.134;2023-04-15T02:08:22;5.22;;;4.82;;
18104;SDS011;9179;50.968;3.134;2023-04-15T02:10:49;5.53;;;5.13;;
18104;SDS011;9179;50.968;3.134;2023-04-15T02:13:16;6.88;;;6.28;;
18104;SDS011;9179;50.968;3.134;2023-04-15T02:15:45;5.93;;;5.28;;
18104;SDS011;9179;50.968;3.134;2023-04-15T02:18:15;5.00;;;4.70;;
18104;SDS011;9179;50.968;3.134;2023-04-15T02:20:42;5.65;;;5.25;;
18104;SDS011;9179;50.968;3.134;2023-04-15T02:23:09;6.03;;;5.53;;
18104;SDS011;9179;50.968;3.134;2023-04-15T02:25:36;5.70;;;5.20;;
18104;SDS011;9179;50.968;3.134;2023-04-15T02:28:04;5.95;;;5.45;;
18104;SDS011;9179;50.968;3.134;2023-04-15T02:30:31;5.50;;;5.10;;
18104;SDS011;9179;50.968;3.134;2023-04-15T02:32:58;6.07;;;5.57;;
18104;SDS011;9179;50.968;3.134;2023-04-15T02:35:27;6.78;;;6.28;;
18104;SDS011;9179;50.968;3.134;2023-04-15T02:37:54;5.65;;;5.25;;
18104;SDS011;9179;50.968;3.134;2023-04-15T02:40:21;5.10;;;4.70;;
18104;SDS011;9179;50.968;3.134;2023-04-15T02:42:48;5.05;;;4.68;;
18104;SDS011;9179;50.968;3.134;2023-04-15T02:45:15;5.25;;;4.75;;
18104;SDS011;9179;50.968;3.134;2023-04-15T02:47:44;5.10;;;4.63;;
18104;SDS011;9179;50.968;3.134;2023-04-15T02:50:11;5.65;;;5.20;;
18104;SDS011;9179;50.968;3.134;2023-04-15T02:55:08;6.22;;;5.63;;
18104;SDS011;9179;50.968;3.134;2023-04-15T02:57:36;6.35;;;5.85;;
18104;SDS011;9179;50.968;3.134;2023-04-15T03:00:05;7.05;;;6.40;;
18104;SDS011;9179;50.968;3.134;2023-04-15T03:02:35;7.75;;;6.97;;
18104;SDS011;9179;50.968;3.134;2023-04-15T03:05:03;8.75;;;7.68;;
18104;SDS011;9179;50.968;3.134;2023-04-15T03:07:31;8.32;;;7.63;;
18104;SDS011;9179;50.968;3.134;2023-04-15T03:09:59;8.25;;;7.55;;
18104;SDS011;9179;50.968;3.134;2023-04-15T03:12:26;8.43;;;7.72;;
18104;SDS011;9179;50.968;3.134;2023-04-15T03:14:54;9.18;;;8.40;;
18104;SDS011;9179;50.968;3.134;2023-04-15T03:17:21;9.75;;;8.95;;
18104;SDS011;9179;50.968;3.134;2023-04-15T03:19:48;10.23;;;9.18;;
18104;SDS011;9179;50.968;3.134;2023-04-15T03:22:15;11.00;;;9.98;;
18104;SDS011;9179;50.968;3.134;2023-04-15T03:24:42;10.23;;;9.32;;
18104;SDS011;9179;50.968;3.134;2023-04-15T03:27:10;10.55;;;9.55;;
18104;SDS011;9179;50.968;3.134;2023-04-15T03:29:37;11.82;;;10.63;;
18104;SDS011;9179;50.968;3.134;2023-04-15T03:32:04;11.57;;;10.50;;
18104;SDS011;9179;50.968;3.134;2023-04-15T03:34:31;11.45;;;10.45;;
18104;SDS011;9179;50.968;3.134;2023-04-15T03:36:58;11.57;;;10.57;;
18104;SDS011;9179;50.968;3.134;2023-04-15T03:39:25;10.48;;;9.57;;
18104;SDS011;9179;50.968;3.134;2023-04-15T03:41:52;12.48;;;11.35;;
18104;SDS011;9179;50.968;3.134;2023-04-15T03:44:20;10.60;;;9.60;;
18104;SDS011;9179;50.968;3.134;2023-04-15T03:46:47;11.38;;;10.35;;
18104;SDS011;9179;50.968;3.134;2023-04-15T03:49:14;11.40;;;10.23;;
18104;SDS011;9179;50.968;3.134;2023-04-15T03:51:41;10.57;;;9.68;;
18104;SDS011;9179;50.968;3.134;2023-04-15T03:54:08;11.40;;;10.40;;
18104;SDS011;9179;50.968;3.134;2023-04-15T03:56:35;11.35;;;10.20;;
18104;SDS011;9179;50.968;3.134;2023-04-15T03:59:02;12.32;;;11.13;;
18104;SDS011;9179;50.968;3.134;2023-04-15T04:01:30;11.70;;;10.70;;
18104;SDS011;9179;50.968;3.134;2023-04-15T04:03:57;10.65;;;9.70;;
18104;SDS011;9179;50.968;3.134;2023-04-15T04:06:24;10.70;;;9.70;;
18104;SDS011;9179;50.968;3.134;2023-04-15T04:08:52;11.82;;;10.73;;
18104;SDS011;9179;50.968;3.134;2023-04-15T04:11:18;10.63;;;9.13;;
18104;SDS011;9179;50.968;3.134;2023-04-15T04:13:46;9.90;;;9.10;;
18104;SDS011;9179;50.968;3.134;2023-04-15T04:16:13;9.68;;;8.18;;
18104;SDS011;9179;50.968;3.134;2023-04-15T04:18:41;9.57;;;8.68;;
18104;SDS011;9179;50.968;3.134;2023-04-15T04:21:08;10.07;;;9.27;;
18104;SDS011;9179;50.968;3.134;2023-04-15T04:23:35;11.18;;;10.27;;
18104;SDS011;9179;50.968;3.134;2023-04-15T04:26:02;11.25;;;10.23;;
18104;SDS011;9179;50.968;3.134;2023-04-15T04:28:29;12.05;;;10.85;;
18104;SDS011;9179;50.968;3.134;2023-04-15T04:30:56;12.85;;;11.55;;
18104;SDS011;9179;50.968;3.134;2023-04-15T04:33:23;11.77;;;10.63;;
18104;SDS011;9179;50.968;3.134;2023-04-15T04:35:51;14.05;;;12.73;;
18104;SDS011;9179;50.968;3.134;2023-04-15T04:38:18;11.98;;;10.93;;
18104;SDS011;9179;50.968;3.134;2023-04-15T04:40:45;12.80;;;11.60;;
18104;SDS011;9179;50.968;3.134;2023-04-15T04:43:12;12.77;;;11.60;;
18104;SDS011;9179;50.968;3.134;2023-04-15T04:45:40;13.10;;;11.90;;
18104;SDS011;9179;50.968;3.134;2023-04-15T04:48:07;11.18;;;10.20;;
18104;SDS011;9179;50.968;3.134;2023-04-15T04:50:34;14.18;;;12.82;;
18104;SDS011;9179;50.968;3.134;2023-04-15T04:53:03;13.35;;;11.90;;
18104;SDS011;9179;50.968;3.134;2023-04-15T04:55:30;11.77;;;10.57;;
18104;SDS011;9179;50.968;3.134;2023-04-15T04:57:57;14.00;;;12.48;;
18104;SDS011;9179;50.968;3.134;2023-04-15T05:00:24;13.27;;;11.90;;
18104;SDS011;9179;50.968;3.134;2023-04-15T05:02:50;14.15;;;12.80;;
18104;SDS011;9179;50.968;3.134;2023-04-15T05:05:17;14.25;;;12.80;;
18104;SDS011;9179;50.968;3.134;2023-04-15T05:07:44;14.57;;;13.20;;
18104;SDS011;9179;50.968;3.134;2023-04-15T05:10:14;14.93;;;13.50;;
18104;SDS011;9179;50.968;3.134;2023-04-15T05:12:42;16.95;;;15.10;;
18104;SDS011;9179;50.968;3.134;2023-04-15T05:15:09;17.08;;;15.05;;
18104;SDS011;9179;50.968;3.134;2023-04-15T05:17:36;19.40;;;16.85;;
18104;SDS011;9179;50.968;3.134;2023-04-15T05:20:04;16.00;;;14.43;;
18104;SDS011;9179;50.968;3.134;2023-04-15T05:22:31;17.90;;;15.93;;
18104;SDS011;9179;50.968;3.134;2023-04-15T05:24:58;17.80;;;16.00;;
18104;SDS011;9179;50.968;3.134;2023-04-15T05:27:26;16.88;;;15.27;;
18104;SDS011;9179;50.968;3.134;2023-04-15T05:29:53;17.85;;;16.08;;
18104;SDS011;9179;50.968;3.134;2023-04-15T05:32:20;17.77;;;16.10;;
18104;SDS011;9179;50.968;3.134;2023-04-15T05:34:47;20.00;;;16.85;;
18104;SDS011;9179;50.968;3.134;2023-04-15T05:37:14;17.52;;;15.75;;
18104;SDS011;9179;50.968;3.134;2023-04-15T05:39:41;17.42;;;15.68;;
18104;SDS011;9179;50.968;3.134;2023-04-15T05:42:08;17.85;;;16.15;;
18104;SDS011;9179;50.968;3.134;2023-04-15T05:44:36;16.88;;;15.38;;
18104;SDS011;9179;50.968;3.134;2023-04-15T05:47:03;17.70;;;14.40;;
18104;SDS011;9179;50.968;3.134;2023-04-15T05:49:31;15.00;;;13.27;;
18104;SDS011;9179;50.968;3.134;2023-04-15T05:51:58;13.48;;;12.05;;
18104;SDS011;9179;50.968;3.134;2023-04-15T05:54:25;12.98;;;11.80;;
18104;SDS011;9179;50.968;3.134;2023-04-15T05:56:52;13.18;;;11.98;;
18104;SDS011;9179;50.968;3.134;2023-04-15T05:59:20;14.88;;;13.20;;
18104;SDS011;9179;50.968;3.134;2023-04-15T06:01:48;12.27;;;11.05;;
18104;SDS011;9179;50.968;3.134;2023-04-15T06:04:16;12.40;;;11.18;;
18104;SDS011;9179;50.968;3.134;2023-04-15T06:06:43;12.02;;;10.90;;
18104;SDS011;9179;50.968;3.134;2023-04-15T06:09:10;12.10;;;11.10;;
18104;SDS011;9179;50.968;3.134;2023-04-15T06:11:37;12.98;;;11.65;;
18104;SDS011;9179;50.968;3.134;2023-04-15T06:14:05;14.45;;;11.63;;
18104;SDS011;9179;50.968;3.134;2023-04-15T06:16:32;14.18;;;11.52;;
18104;SDS011;9179;50.968;3.134;2023-04-15T06:19:01;12.70;;;11.40;;
18104;SDS011;9179;50.968;3.134;2023-04-15T06:21:28;12.80;;;10.90;;
18104;SDS011;9179;50.968;3.134;2023-04-15T06:23:57;12.80;;;11.50;;
18104;SDS011;9179;50.968;3.134;2023-04-15T06:26:24;12.68;;;11.57;;
18104;SDS011;9179;50.968;3.134;2023-04-15T06:28:51;12.48;;;11.27;;
18104;SDS011;9179;50.968;3.134;2023-04-15T06:31:18;13.02;;;11.57;;
18104;SDS011;9179;50.968;3.134;2023-04-15T06:33:45;13.13;;;11.65;;
18104;SDS011;9179;50.968;3.134;2023-04-15T06:36:13;12.45;;;11.25;;
18104;SDS011;9179;50.968;3.134;2023-04-15T06:38:40;12.40;;;11.20;;
18104;SDS011;9179;50.968;3.134;2023-04-15T06:41:07;12.75;;;11.45;;
18104;SDS011;9179;50.968;3.134;2023-04-15T06:43:34;12.88;;;11.45;;
18104;SDS011;9179;50.968;3.134;2023-04-15T06:46:01;13.80;;;12.60;;
18104;SDS011;9179;50.968;3.134;2023-04-15T06:48:28;13.10;;;11.90;;
18104;SDS011;9179;50.968;3.134;2023-04-15T06:50:55;13.48;;;11.98;;
18104;SDS011;9179;50.968;3.134;2023-04-15T06:53:24;14.10;;;12.73;;
18104;SDS011;9179;50.968;3.134;2023-04-15T06:55:52;13.57;;;12.13;;
18104;SDS011;9179;50.968;3.134;2023-04-15T06:58:18;13.63;;;12.32;;
18104;SDS011;9179;50.968;3.134;2023-04-15T07:00:45;14.55;;;13.15;;
18104;SDS011;9179;50.968;3.134;2023-04-15T07:03:13;14.90;;;13.35;;
18104;SDS011;9179;50.968;3.134;2023-04-15T07:05:40;16.23;;;14.60;;
18104;SDS011;9179;50.968;3.134;2023-04-15T07:08:07;15.15;;;13.55;;
18104;SDS011;9179;50.968;3.134;2023-04-15T07:10:35;15.88;;;14.20;;
18104;SDS011;9179;50.968;3.134;2023-04-15T07:13:03;17.13;;;13.60;;
18104;SDS011;9179;50.968;3.134;2023-04-15T07:15:31;17.33;;;13.95;;
18104;SDS011;9179;50.968;3.134;2023-04-15T07:17:58;15.13;;;13.57;;
18104;SDS011;9179;50.968;3.134;2023-04-15T07:20:25;14.95;;;13.50;;
18104;SDS011;9179;50.968;3.134;2023-04-15T07:22:51;14.18;;;12.80;;
18104;SDS011;9179;50.968;3.134;2023-04-15T07:25:19;15.50;;;13.65;;
18104;SDS011;9179;50.968;3.134;2023-04-15T07:27:47;16.42;;;12.30;;
18104;SDS011;9179;50.968;3.134;2023-04-15T07:30:14;11.20;;;10.13;;
18104;SDS011;9179;50.968;3.134;2023-04-15T07:32:42;11.48;;;10.38;;
18104;SDS011;9179;50.968;3.134;2023-04-15T07:35:08;11.32;;;10.23;;
18104;SDS011;9179;50.968;3.134;2023-04-15T07:37:35;11.80;;;10.63;;
18104;SDS011;9179;50.968;3.134;2023-04-15T07:40:03;11.02;;;9.90;;
18104;SDS011;9179;50.968;3.134;2023-04-15T07:42:31;10.45;;;9.45;;
18104;SDS011;9179;50.968;3.134;2023-04-15T07:45:00;11.05;;;9.90;;
18104;SDS011;9179;50.968;3.134;2023-04-15T07:47:27;9.98;;;9.13;;
18104;SDS011;9179;50.968;3.134;2023-04-15T07:49:54;11.73;;;10.32;;
18104;SDS011;9179;50.968;3.134;2023-04-15T07:52:21;9.48;;;8.57;;
18104;SDS011;9179;50.968;3.134;2023-04-15T07:54:48;10.73;;;9.63;;
18104;SDS011;9179;50.968;3.134;2023-04-15T07:57:15;12.40;;;9.88;;
18104;SDS011;9179;50.968;3.134;2023-04-15T07:59:42;9.82;;;8.85;;
18104;SDS011;9179;50.968;3.134;2023-04-15T08:02:11;8.40;;;7.60;;
18104;SDS011;9179;50.968;3.134;2023-04-15T08:04:38;8.50;;;7.60;;
18104;SDS011;9179;50.968;3.134;2023-04-15T08:07:05;7.85;;;7.18;;
18104;SDS011;9179;50.968;3.134;2023-04-15T08:09:32;9.63;;;7.00;;
18104;SDS011;9179;50.968;3.134;2023-04-15T08:11:59;8.98;;;8.23;;
18104;SDS011;9179;50.968;3.134;2023-04-15T08:14:26;8.40;;;7.70;;
18104;SDS011;9179;50.968;3.134;2023-04-15T08:16:54;8.13;;;7.25;;
18104;SDS011;9179;50.968;3.134;2023-04-15T08:19:22;8.07;;;7.38;;
18104;SDS011;9179;50.968;3.134;2023-04-15T08:21:49;8.70;;;7.38;;
18104;SDS011;9179;50.968;3.134;2023-04-15T08:24:16;7.18;;;6.57;;
18104;SDS011;9179;50.968;3.134;2023-04-15T08:26:43;7.22;;;6.57;;
18104;SDS011;9179;50.968;3.134;2023-04-15T08:29:10;7.32;;;6.55;;
18104;SDS011;9179;50.968;3.134;2023-04-15T08:31:37;6.72;;;6.07;;
18104;SDS011;9179;50.968;3.134;2023-04-15T08:34:05;5.40;;;4.90;;
18104;SDS011;9179;50.968;3.134;2023-04-15T08:36:33;6.10;;;5.60;;
18104;SDS011;9179;50.968;3.134;2023-04-15T08:39:00;10.25;;;6.45;;
18104;SDS011;9179;50.968;3.134;2023-04-15T08:41:30;6.65;;;6.07;;
18104;SDS011;9179;50.968;3.134;2023-04-15T08:44:05;6.78;;;6.15;;
18104;SDS011;9179;50.968;3.134;2023-04-15T08:46:32;8.25;;;7.40;;
18104;SDS011;9179;50.968;3.134;2023-04-15T08:49:00;8.48;;;7.68;;
18104;SDS011;9179;50.968;3.134;2023-04-15T08:51:30;8.07;;;7.28;;
18104;SDS011;9179;50.968;3.134;2023-04-15T08:53:59;8.73;;;8.02;;
18104;SDS011;9179;50.968;3.134;2023-04-15T08:56:27;8.40;;;7.53;;
18104;SDS011;9179;50.968;3.134;2023-04-15T08:58:57;9.23;;;8.43;;
18104;SDS011;9179;50.968;3.134;2023-04-15T09:01:24;9.35;;;8.55;;
18104;SDS011;9179;50.968;3.134;2023-04-15T09:03:52;10.80;;;9.40;;
18104;SDS011;9179;50.968;3.134;2023-04-15T09:06:19;11.45;;;10.32;;
18104;SDS011;9179;50.968;3.134;2023-04-15T09:08:47;8.50;;;7.65;;
18104;SDS011;9179;50.968;3.134;2023-04-15T09:11:16;9.05;;;8.15;;
18104;SDS011;9179;50.968;3.134;2023-04-15T09:13:47;9.35;;;8.55;;
18104;SDS011;9179;50.968;3.134;2023-04-15T09:16:14;9.18;;;8.27;;
18104;SDS011;9179;50.968;3.134;2023-04-15T09:18:41;8.10;;;7.22;;
18104;SDS011;9179;50.968;3.134;2023-04-15T09:21:09;9.23;;;8.02;;
18104;SDS011;9179;50.968;3.134;2023-04-15T09:23:37;13.52;;;8.00;;
18104;SDS011;9179;50.968;3.134;2023-04-15T09:26:06;7.13;;;6.43;;
18104;SDS011;9179;50.968;3.134;2023-04-15T09:28:41;7.38;;;6.78;;
18104;SDS011;9179;50.968;3.134;2023-04-15T09:31:08;7.00;;;6.30;;
18104;SDS011;9179;50.968;3.134;2023-04-15T09:33:36;6.47;;;5.93;;
18104;SDS011;9179;50.968;3.134;2023-04-15T09:36:20;7.43;;;6.22;;
18104;SDS011;9179;50.968;3.134;2023-04-15T09:38:53;7.07;;;6.38;;
18104;SDS011;9179;50.968;3.134;2023-04-15T09:41:21;8.40;;;6.65;;
18104;SDS011;9179;50.968;3.134;2023-04-15T09:43:50;7.95;;;7.22;;
18104;SDS011;9179;50.968;3.134;2023-04-15T09:46:17;8.77;;;7.60;;
18104;SDS011;9179;50.968;3.134;2023-04-15T09:48:44;7.80;;;7.00;;
18104;SDS011;9179;50.968;3.134;2023-04-15T09:51:11;8.27;;;6.60;;
18104;SDS011;9179;50.968;3.134;2023-04-15T09:53:38;7.85;;;6.82;;
18104;SDS011;9179;50.968;3.134;2023-04-15T09:56:05;7.15;;;6.53;;
18104;SDS011;9179;50.968;3.134;2023-04-15T09:58:34;8.60;;;7.68;;
18104;SDS011;9179;50.968;3.134;2023-04-15T10:01:04;10.27;;;7.47;;
18104;SDS011;9179;50.968;3.134;2023-04-15T10:03:32;8.45;;;7.68;;
18104;SDS011;9179;50.968;3.134;2023-04-15T10:06:00;9.77;;;8.20;;
18104;SDS011;9179;50.968;3.134;2023-04-15T10:08:30;9.38;;;8.48;;
18104;SDS011;9179;50.968;3.134;2023-04-15T10:10:59;9.82;;;8.10;;
18104;SDS011;9179;50.968;3.134;2023-04-15T10:13:28;10.23;;;8.80;;
18104;SDS011;9179;50.968;3.134;2023-04-15T10:15:59;8.85;;;7.95;;
18104;SDS011;9179;50.968;3.134;2023-04-15T10:18:33;8.93;;;8.13;;
18104;SDS011;9179;50.968;3.134;2023-04-15T10:21:03;9.95;;;8.95;;
18104;SDS011;9179;50.968;3.134;2023-04-15T10:23:32;9.32;;;8.48;;
18104;SDS011;9179;50.968;3.134;2023-04-15T10:25:59;12.10;;;9.27;;
18104;SDS011;9179;50.968;3.134;2023-04-15T10:28:27;10.00;;;9.05;;
18104;SDS011;9179;50.968;3.134;2023-04-15T10:30:54;10.35;;;9.45;;
18104;SDS011;9179;50.968;3.134;2023-04-15T10:33:22;9.40;;;8.60;;
18104;SDS011;9179;50.968;3.134;2023-04-15T10:35:53;10.30;;;9.43;;
18104;SDS011;9179;50.968;3.134;2023-04-15T10:38:31;10.32;;;9.30;;
18104;SDS011;9179;50.968;3.134;2023-04-15T10:41:12;9.93;;;9.05;;
18104;SDS011;9179;50.968;3.134;2023-04-15T10:43:44;10.20;;;9.40;;
18104;SDS011;9179;50.968;3.134;2023-04-15T10:46:15;10.60;;;9.40;;
18104;SDS011;9179;50.968;3.134;2023-04-15T10:48:47;10.25;;;9.25;;
18104;SDS011;9179;50.968;3.134;2023-04-15T10:54:00;9.63;;;8.82;;
18104;SDS011;9179;50.968;3.134;2023-04-15T10:56:27;9.93;;;8.95;;
18104;SDS011;9179;50.968;3.134;2023-04-15T10:58:55;9.10;;;8.30;;
18104;SDS011;9179;50.968;3.134;2023-04-15T11:01:33;9.10;;;8.27;;
18104;SDS011;9179;50.968;3.134;2023-04-15T11:13:24;7.47;;;6.80;;
18104;SDS011;9179;50.968;3.134;2023-04-15T11:15:56;7.93;;;7.35;;
18104;SDS011;9179;50.968;3.134;2023-04-15T11:18:26;7.88;;;7.18;;
18104;SDS011;9179;50.968;3.134;2023-04-15T11:20:55;6.47;;;5.88;;
18104;SDS011;9179;50.968;3.134;2023-04-15T11:23:26;7.70;;;7.00;;
18104;SDS011;9179;50.968;3.134;2023-04-15T11:25:58;7.70;;;6.90;;
18104;SDS011;9179;50.968;3.134;2023-04-15T11:28:28;4.68;;;4.30;;
18104;SDS011;9179;50.968;3.134;2023-04-15T11:30:56;5.60;;;5.10;;
18104;SDS011;9179;50.968;3.134;2023-04-15T11:33:24;5.40;;;5.00;;
18104;SDS011;9179;50.968;3.134;2023-04-15T11:35:52;5.40;;;5.00;;
18104;SDS011;9179;50.968;3.134;2023-04-15T11:38:19;6.43;;;5.93;;
18104;SDS011;9179;50.968;3.134;2023-04-15T11:40:47;6.00;;;5.53;;
18104;SDS011;9179;50.968;3.134;2023-04-15T11:43:16;5.18;;;4.88;;
18104;SDS011;9179;50.968;3.134;2023-04-15T11:45:50;6.90;;;6.07;;
18104;SDS011;9179;50.968;3.134;2023-04-15T11:48:18;7.13;;;6.45;;
18104;SDS011;9179;50.968;3.134;2023-04-15T11:50:51;7.35;;;6.75;;
18104;SDS011;9179;50.968;3.134;2023-04-15T11:53:19;7.07;;;6.47;;
18104;SDS011;9179;50.968;3.134;2023-04-15T11:55:47;7.22;;;6.57;;
18104;SDS011;9179;50.968;3.134;2023-04-15T11:58:16;5.80;;;5.35;;
18104;SDS011;9179;50.968;3.134;2023-04-15T12:00:47;4.85;;;4.55;;
18104;SDS011;9179;50.968;3.134;2023-04-15T12:03:24;6.10;;;4.88;;
18104;SDS011;9179;50.968;3.134;2023-04-15T12:06:01;5.82;;;5.07;;
18104;SDS011;9179;50.968;3.134;2023-04-15T12:11:34;6.78;;;6.15;;
18104;SDS011;9179;50.968;3.134;2023-04-15T12:14:06;6.30;;;5.78;;
18104;SDS011;9179;50.968;3.134;2023-04-15T12:16:38;5.78;;;5.38;;
18104;SDS011;9179;50.968;3.134;2023-04-15T12:19:06;5.47;;;4.85;;
18104;SDS011;9179;50.968;3.134;2023-04-15T12:21:36;4.30;;;3.90;;
18104;SDS011;9179;50.968;3.134;2023-04-15T12:24:05;3.28;;;2.97;;
18104;SDS011;9179;50.968;3.134;2023-04-15T12:26:34;3.60;;;3.30;;
18104;SDS011;9179;50.968;3.134;2023-04-15T12:29:04;2.78;;;2.50;;
18104;SDS011;9179;50.968;3.134;2023-04-15T12:31:33;2.60;;;2.40;;
18104;SDS011;9179;50.968;3.134;2023-04-15T12:34:02;2.45;;;2.30;;
18104;SDS011;9179;50.968;3.134;2023-04-15T12:36:33;2.70;;;2.47;;
18104;SDS011;9179;50.968;3.134;2023-04-15T12:39:01;2.60;;;2.40;;
18104;SDS011;9179;50.968;3.134;2023-04-15T12:41:30;3.70;;;3.40;;
18104;SDS011;9179;50.968;3.134;2023-04-15T12:43:57;3.97;;;3.67;;
18104;SDS011;9179;50.968;3.134;2023-04-15T12:46:24;5.80;;;4.63;;
18104;SDS011;9179;50.968;3.134;2023-04-15T12:48:51;6.93;;;6.32;;
18104;SDS011;9179;50.968;3.134;2023-04-15T12:51:20;7.88;;;6.93;;
18104;SDS011;9179;50.968;3.134;2023-04-15T12:53:47;7.10;;;6.43;;
18104;SDS011;9179;50.968;3.134;2023-04-15T12:56:14;7.63;;;7.03;;
18104;SDS011;9179;50.968;3.134;2023-04-15T12:58:42;6.70;;;6.15;;
18104;SDS011;9179;50.968;3.134;2023-04-15T13:01:09;7.88;;;7.18;;
18104;SDS011;9179;50.968;3.134;2023-04-15T13:03:36;8.27;;;7.47;;
18104;SDS011;9179;50.968;3.134;2023-04-15T13:06:03;7.82;;;7.05;;
18104;SDS011;9179;50.968;3.134;2023-04-15T13:08:32;8.05;;;7.38;;
18104;SDS011;9179;50.968;3.134;2023-04-15T13:10:59;8.82;;;8.02;;
18104;SDS011;9179;50.968;3.134;2023-04-15T13:13:26;9.05;;;7.65;;
18104;SDS011;9179;50.968;3.134;2023-04-15T13:15:53;9.27;;;8.38;;
18104;SDS011;9179;50.968;3.134;2023-04-15T13:18:20;8.45;;;7.75;;
18104;SDS011;9179;50.968;3.134;2023-04-15T13:20:47;8.77;;;7.95;;
18104;SDS011;9179;50.968;3.134;2023-04-15T13:23:15;8.05;;;7.35;;
18104;SDS011;9179;50.968;3.134;2023-04-15T13:25:43;9.60;;;7.25;;
18104;SDS011;9179;50.968;3.134;2023-04-15T13:28:10;10.52;;;8.10;;
18104;SDS011;9179;50.968;3.134;2023-04-15T13:30:37;7.63;;;6.93;;
18104;SDS011;9179;50.968;3.134;2023-04-15T13:33:04;9.18;;;8.27;;
18104;SDS011;9179;50.968;3.134;2023-04-15T13:35:31;13.50;;;8.73;;
18104;SDS011;9179;50.968;3.134;2023-04-15T13:37:59;9.05;;;8.35;;
18104;SDS011;9179;50.968;3.134;2023-04-15T13:40:25;10.02;;;8.93;;
18104;SDS011;9179;50.968;3.134;2023-04-15T13:42:54;7.38;;;6.78;;
18104;SDS011;9179;50.968;3.134;2023-04-15T13:45:21;8.27;;;7.47;;
18104;SDS011;9179;50.968;3.134;2023-04-15T13:47:48;8.65;;;7.82;;
18104;SDS011;9179;50.968;3.134;2023-04-15T13:50:16;8.95;;;7.85;;
18104;SDS011;9179;50.968;3.134;2023-04-15T13:52:43;9.40;;;8.40;;
18104;SDS011;9179;50.968;3.134;2023-04-15T13:55:10;10.30;;;9.00;;
18104;SDS011;9179;50.968;3.134;2023-04-15T13:57:36;10.40;;;9.50;;
18104;SDS011;9179;50.968;3.134;2023-04-15T14:00:08;9.57;;;8.68;;
18104;SDS011;9179;50.968;3.134;2023-04-15T14:02:36;10.73;;;9.60;;
18104;SDS011;9179;50.968;3.134;2023-04-15T14:05:03;9.88;;;8.73;;
18104;SDS011;9179;50.968;3.134;2023-04-15T14:07:30;10.23;;;9.20;;
18104;SDS011;9179;50.968;3.134;2023-04-15T14:09:57;9.02;;;8.23;;
18104;SDS011;9179;50.968;3.134;2023-04-15T14:12:25;8.18;;;7.45;;
18104;SDS011;9179;50.968;3.134;2023-04-15T14:14:52;8.55;;;7.82;;
18104;SDS011;9179;50.968;3.134;2023-04-15T14:17:20;9.38;;;8.48;;
18104;SDS011;9179;50.968;3.134;2023-04-15T14:19:47;9.70;;;8.90;;
18104;SDS011;9179;50.968;3.134;2023-04-15T14:22:14;8.10;;;7.30;;
18104;SDS011;9179;50.968;3.134;2023-04-15T14:24:42;8.20;;;7.40;;
18104;SDS011;9179;50.968;3.134;2023-04-15T14:27:09;8.90;;;8.00;;
18104;SDS011;9179;50.968;3.134;2023-04-15T14:29:36;7.70;;;6.88;;
18104;SDS011;9179;50.968;3.134;2023-04-15T14:32:03;7.80;;;7.13;;
18104;SDS011;9179;50.968;3.134;2023-04-15T14:34:32;9.32;;;7.22;;
18104;SDS011;9179;50.968;3.134;2023-04-15T14:36:59;7.95;;;7.00;;
18104;SDS011;9179;50.968;3.134;2023-04-15T14:39:27;7.30;;;6.70;;
18104;SDS011;9179;50.968;3.134;2023-04-15T14:41:54;10.35;;;7.15;;
18104;SDS011;9179;50.968;3.134;2023-04-15T14:44:21;7.72;;;6.47;;
18104;SDS011;9179;50.968;3.134;2023-04-15T14:46:48;7.43;;;6.53;;
18104;SDS011;9179;50.968;3.134;2023-04-15T14:49:16;6.53;;;5.95;;
18104;SDS011;9179;50.968;3.134;2023-04-15T14:51:45;7.03;;;6.32;;
18104;SDS011;9179;50.968;3.134;2023-04-15T14:54:12;6.75;;;6.15;;
18104;SDS011;9179;50.968;3.134;2023-04-15T14:56:39;7.35;;;5.72;;
18104;SDS011;9179;50.968;3.134;2023-04-15T14:59:06;5.22;;;4.78;;
18104;SDS011;9179;50.968;3.134;2023-04-15T15:01:33;3.40;;;3.10;;
18104;SDS011;9179;50.968;3.134;2023-04-15T15:03:59;3.63;;;3.10;;
18104;SDS011;9179;50.968;3.134;2023-04-15T15:06:26;3.33;;;2.33;;
18104;SDS011;9179;50.968;3.134;2023-04-15T15:08:55;2.75;;;2.50;;
18104;SDS011;9179;50.968;3.134;2023-04-15T15:11:22;3.00;;;2.63;;
18104;SDS011;9179;50.968;3.134;2023-04-15T15:13:49;3.40;;;2.45;;
18104;SDS011;9179;50.968;3.134;2023-04-15T15:16:16;2.30;;;2.10;;